ASN logo
ASN Wikibase Occurrence # 244289
Last updated: 22 October 2020
This information is added by users of ASN. Neither ASN nor the Flight Safety Foundation are responsible for the completeness or correctness of this information. If you feel this information is incomplete or incorrect, you can submit corrected information.

Date:20-OCT-2020
Time:21:02 LT
Type:Silhouette image of generic E145 model; specific model in this crash may look slightly different
Embraer ERJ-145LR
Owner/operator:Envoy Air, opf American Eagle
Registration: N607AE
C/n / msn: 145064
Fatalities:Fatalities: 0 / Occupants:
Other fatalities:0
Aircraft damage: None
Location:Wausau-Central Wisconsin Airport, WI (CWA/KCWA) -   United States of America
Phase: Landing
Nature:Passenger - Scheduled
Departure airport:Chicago-O'Hare International Airport, IL (ORD/KORD)
Destination airport:Wausau-Central Wisconsin Airport, WI (CWA/KCWA)
Narrative:
American flight AA3541, an Embraer ERJ-145LR, slid off snow-covered runway while landing at the Wausau-Central Wisconsin Airport, Wisconsin, USA.
No damage or evacuation. Passengers taken to terminal by bus.


Weather reported about the incident time (21:02 LT / 0202Z, Oct. 21):

KCWA 210250Z 09004KT 3SM -SN OVC004 00/00 A3002
KCWA 210150Z 09005KT 1SM -SN OVC004 00/00 A3004
KCWA 210050Z 06006KT 3/4SM -SN OVC004 00/00 A3007

Sources:

https://www.wsaw.com/2020/10/21/plane-skids-of-the-runway-at-central-wisconsin-airport/
https://www.flightradar24.com/data/aircraft/n607ae#25d413b8


Images:

Photo of N607AE courtesy AirHistory.net


Miami - International (KMIA / MIA)
22 February 2020; (c) Anton Homma

Revision history:

Date/timeContributorUpdates
22-Oct-2020 07:32 waskinr Added
22-Oct-2020 07:43 harro Updated [Time, Aircraft type, Registration, Cn, Operator, Other fatalities, Location, Source, Narrative]

Corrections or additions? ... Edit this accident description